Terminal Aerodrome Forecast
Issued by NWS Pendleton, OR

Home | Current Version | Previous Version | Text Only | Print | Product List | Glossary On
Versions: 1 2 3 4 5 6 7 8 9 10 11 12 13 14 15 16 17 18
000
FTUS46 KPDT 240520
TAFPDT
TAF
KPDT 240520Z 2406/2506 29008G15KT P6SM SCT060
     FM241200 26008G15KT P6SM FEW120
     FM242100 28010G20KT P6SM SCT120 BKN250
     FM250100 28008G15KT P6SM VCSH SCT070 OVC120=

USA.gov is the U.S. government's official web portal to all federal, state and local government web resources and services.